Terminal Aerodrome Forecast
Issued by NWS

Home | Current Version | Previous Version | Text Only | Print | Product List | Glossary On
Versions: 1 2 3 4 5 6 7 8 9 10 11 12 13
000
FTUS45 KTFX 012300 RRA
TAFLWT
TAF
KLWT 012341Z 0200/0224 VRB06KT P6SM VCSH SCT040 BKN070
     FM020100 23008KT P6SM SCT080
     FM020900 30011KT P6SM SCT050 BKN080
     FM021100 33015KT P6SM VCSH SCT020 OVC035
      TEMPO 0212/0216 35015G25KT 3SM -SNRA BR BKN015
     FM021800 31015KT P6SM VCSH SCT030 BKN050=

USA.gov is the U.S. government's official web portal to all federal, state and local government web resources and services.